Time;durP1;ratioP1;P1;durP2;ratioP2;P2;SDS_P1;SDS_P2;PMS_P1;PMS_P2;Temp;Humidity;BMP_temperature;BMP_pressure;BME280_temperature;BME280_humidity;BME280_pressure;Samples;Min_cycle;Max_cycle;Signal;HPM_P1;HPM_P2
2021/03/23 00:01:00;;;;;;;9.60;4.63;;;;;;;4.00;94.75;101422.34;5018813;28;20181;-70
2021/03/23 00:03:28;;;;;;;10.00;3.60;;;;;;;4.00;94.86;101430.25;5002656;28;20170;-70
2021/03/23 00:05:54;;;;;;;8.00;3.50;;;;;;;3.97;94.62;101431.19;5002221;28;20651;-70
2021/03/23 00:08:22;;;;;;;6.80;3.63;;;;;;;3.97;94.04;101427.66;5036247;28;20298;-70
2021/03/23 00:10:47;;;;;;;7.73;4.00;;;;;;;3.88;95.40;101423.41;5036502;28;20408;-70
2021/03/23 00:13:13;;;;;;;9.10;4.43;;;;;;;3.82;96.02;101426.16;5036041;28;20622;-70
2021/03/23 00:15:38;;;;;;;11.20;4.73;;;;;;;3.81;95.75;101432.34;5002606;28;20604;-70
2021/03/23 00:18:07;;;;;;;9.90;3.60;;;;;;;3.90;94.62;101428.69;5036869;28;20205;-70
2021/03/23 00:20:32;;;;;;;8.23;3.63;;;;;;;3.89;94.97;101433.09;5034418;28;20259;-70
2021/03/23 00:22:57;;;;;;;6.47;3.50;;;;;;;4.01;91.18;101430.25;5017816;28;20695;-70
2021/03/23 00:25:23;;;;;;;6.93;3.17;;;;;;;4.09;89.54;101424.84;5017854;28;20188;-70
2021/03/23 00:27:48;;;;;;;7.50;2.93;;;;;;;4.08;89.13;101431.88;5035731;28;20184;-71
2021/03/23 00:30:14;;;;;;;10.40;2.90;;;;;;;4.20;87.26;101440.50;5035614;28;20184;-70
2021/03/23 00:32:39;;;;;;;4.60;2.30;;;;;;;4.21;87.20;101439.63;5035840;28;20699;-70
2021/03/23 00:35:07;;;;;;;4.60;2.67;;;;;;;4.25;86.26;101436.03;5036667;28;20181;-71
2021/03/23 00:37:32;;;;;;;4.37;2.60;;;;;;;4.33;85.54;101424.41;5037249;28;20181;-70
2021/03/23 00:39:58;;;;;;;6.13;3.00;;;;;;;4.47;85.18;101432.09;5019930;28;20200;-71
2021/03/23 00:42:23;;;;;;;8.53;2.60;;;;;;;4.46;84.67;101430.38;5035332;28;20633;-70
2021/03/23 00:44:49;;;;;;;6.70;2.30;;;;;;;4.52;84.82;101435.53;5034703;28;20184;-70
2021/03/23 00:47:15;;;;;;;6.30;2.40;;;;;;;4.59;83.69;101423.94;5017033;28;20176;-70
2021/03/23 00:49:40;;;;;;;3.47;2.00;;;;;;;4.60;83.51;101428.31;5034809;28;20206;-70
2021/03/23 00:52:06;;;;;;;3.83;2.43;;;;;;;4.69;82.67;101428.13;5016835;28;20200;-70
2021/03/23 00:54:31;;;;;;;3.50;2.10;;;;;;;4.69;82.35;101433.44;5034888;28;20191;-70
2021/03/23 00:56:57;;;;;;;6.07;2.30;;;;;;;4.64;82.81;101434.41;5035019;28;20186;-69
2021/03/23 00:59:22;;;;;;;5.90;2.07;;;;;;;4.62;82.70;101431.81;5017091;28;20203;-70
2021/03/23 01:01:47;;;;;;;5.20;2.00;;;;;;;4.71;82.41;101431.63;5035065;28;20568;-70
2021/03/23 01:04:13;;;;;;;3.07;1.93;;;;;;;4.68;82.43;101439.63;5016962;28;20180;-69
2021/03/23 01:06:38;;;;;;;5.10;2.10;;;;;;;4.65;82.77;101433.53;5016552;28;20588;-70
2021/03/23 01:09:04;;;;;;;4.17;2.03;;;;;;;4.58;82.72;101432.78;5016711;28;20227;-69
2021/03/23 01:11:29;;;;;;;2.73;1.90;;;;;;;4.59;82.40;101429.22;5016769;28;20180;-70
2021/03/23 01:13:54;;;;;;;3.87;2.00;;;;;;;4.65;81.48;101426.47;5034806;28;20214;-70
2021/03/23 01:16:20;;;;;;;5.80;2.63;;;;;;;4.64;81.76;101429.13;5016490;28;20183;-69
2021/03/23 01:18:45;;;;;;;4.03;1.80;;;;;;;4.69;81.44;101433.44;5033928;28;20655;-70
2021/03/23 01:21:10;;;;;;;4.60;1.77;;;;;;;4.64;81.75;101431.78;5034185;28;20187;-69
2021/03/23 01:23:35;;;;;;;6.27;2.20;;;;;;;4.68;81.09;101436.97;5033896;28;20190;-70
2021/03/23 01:26:01;;;;;;;8.60;2.27;;;;;;;4.74;81.43;101424.53;5033848;28;20176;-70
2021/03/23 01:28:26;;;;;;;5.20;1.80;;;;;;;4.70;81.02;101427.25;5016196;28;20265;-70
2021/03/23 01:30:51;;;;;;;5.97;2.27;;;;;;;4.75;81.09;101426.28;5034355;28;20579;-70
2021/03/23 01:33:17;;;;;;;7.73;1.70;;;;;;;4.67;80.87;101434.38;5034125;28;20226;-70
2021/03/23 01:35:42;;;;;;;4.80;1.80;;;;;;;4.60;80.68;101433.63;5033854;28;20271;-70
2021/03/23 01:38:07;;;;;;;3.40;1.67;;;;;;;4.58;nan;101432.78;5033412;28;20250;-70
2021/03/23 01:40:34;;;;;;;4.67;2.00;;;;;;;4.76;80.72;101435.94;5033883;28;20227;-70
2021/03/23 01:43:03;;;;;;;4.67;1.70;;;;;;;4.67;79.78;101442.28;5033692;28;20176;-70
2021/03/23 01:45:34;;;;;;;5.47;2.30;;;;;;;4.61;80.82;101448.56;4999637;28;20187;-70
2021/03/23 01:48:03;;;;;;;6.17;1.80;;;;;;;4.66;80.11;101451.13;5033731;28;20184;-70
2021/03/23 01:50:29;;;;;;;5.07;1.70;;;;;;;4.55;80.13;101450.47;5016282;28;20191;-70
2021/03/23 01:53:18;;;;;;;2.60;1.50;;;;;;;4.54;80.40;101440.78;5016090;28;20250;-69
2021/03/23 01:55:43;;;;;;;3.67;1.60;;;;;;;4.58;80.53;101446.00;5016459;28;20164;-70
2021/03/23 01:58:09;;;;;;;4.07;1.90;;;;;;;4.65;79.26;101441.44;5033544;28;20298;-69
2021/03/23 02:00:35;;;;;;;4.27;1.50;;;;;;;4.61;79.76;101450.34;5016098;28;20202;-69
2021/03/23 02:03:02;;;;;;;4.23;1.60;;;;;;;4.59;80.02;101452.16;5015970;28;20172;-70
2021/03/23 02:05:29;;;;;;;1.53;1.23;;;;;;;4.47;79.71;101442.69;5015818;28;20176;-69
2021/03/23 02:07:56;;;;;;;3.00;1.73;;;;;;;4.65;79.23;101457.31;5034445;28;20181;-70
2021/03/23 02:10:21;;;;;;;1.10;1.00;;;;;;;4.52;79.07;101442.59;5016263;28;20169;-69
2021/03/23 02:12:47;;;;;;;4.93;1.60;;;;;;;4.60;79.05;101456.53;5033954;28;20199;-70
2021/03/23 02:15:14;;;;;;;2.87;1.67;;;;;;;4.49;79.47;101456.75;5016569;28;20253;-70
2021/03/23 02:17:39;;;;;;;2.70;1.63;;;;;;;4.51;79.08;101449.66;5015926;28;20707;-70
2021/03/23 02:20:07;;;;;;;4.63;1.60;;;;;;;4.47;79.04;101449.75;5033282;28;20275;-70
2021/03/23 02:22:35;;;;;;;4.70;1.77;;;;;;;4.49;78.89;101445.28;5016094;28;20188;-70
2021/03/23 02:25:02;;;;;;;3.07;1.40;;;;;;;4.44;78.88;101445.34;5016143;28;20179;-69
2021/03/23 02:27:29;;;;;;;2.93;1.40;;;;;;;4.35;79.43;101449.03;5015777;28;20176;-69
2021/03/23 02:29:58;;;;;;;4.67;1.43;;;;;;;4.44;78.42;101455.91;5015424;28;20196;-70
2021/03/23 02:32:23;;;;;;;4.03;1.30;;;;;;;4.46;78.80;101440.94;5015708;28;20227;-69
2021/03/23 02:34:48;;;;;;;2.00;1.37;;;;;;;4.50;78.42;101458.47;5033174;28;20628;-69
2021/03/23 02:37:14;;;;;;;3.23;1.37;;;;;;;4.50;78.42;101453.19;5033515;28;20211;-70
2021/03/23 02:39:40;;;;;;;3.27;1.60;;;;;;;4.44;78.81;101447.13;4999245;28;20748;-69
2021/03/23 02:42:06;;;;;;;4.30;1.60;;;;;;;4.61;77.93;101455.63;5015710;28;20183;-69
2021/03/23 02:44:46;;;;;;;3.07;1.50;;;;;;;4.50;78.32;101463.78;5032992;28;20177;-68
2021/03/23 02:47:12;;;;;;;5.57;1.60;;;;;;;4.54;78.14;101456.66;5015411;28;20325;-69
2021/03/23 02:49:38;;;;;;;2.53;1.40;;;;;;;4.49;78.64;101459.38;5035660;28;20196;-69
2021/03/23 02:52:03;;;;;;;5.73;1.30;;;;;;;4.40;78.96;101457.75;5036948;28;20204;-69
2021/03/23 02:54:29;;;;;;;3.10;1.60;;;;;;;4.40;79.11;101457.75;5036650;28;20175;-71
2021/03/23 02:56:54;;;;;;;3.63;1.57;;;;;;;4.34;79.43;101468.44;5019083;28;20544;-70
2021/03/23 02:59:20;;;;;;;3.43;1.50;;;;;;;4.40;79.10;101467.44;5036536;28;20199;-70
2021/03/23 03:01:45;;;;;;;2.70;1.27;;;;;;;4.35;79.42;101461.38;5019119;28;20176;-69
2021/03/23 03:04:11;;;;;;;4.33;1.40;;;;;;;4.39;79.17;101460.41;5002496;28;20176;-70
2021/03/23 03:06:36;;;;;;;3.93;1.43;;;;;;;4.46;79.17;101456.78;5036717;28;20541;-69
2021/03/23 03:09:02;;;;;;;5.70;1.70;;;;;;;4.44;79.42;101462.97;5036444;28;20247;-69
2021/03/23 03:11:27;;;;;;;3.10;1.40;;;;;;;4.41;79.74;101463.91;5018707;28;20274;-71
2021/03/23 03:13:53;;;;;;;5.40;1.67;;;;;;;4.37;79.43;101464.88;5036415;28;20213;-70
2021/03/23 03:16:18;;;;;;;5.50;1.60;;;;;;;4.36;79.50;101469.28;5018879;28;20210;-70
2021/03/23 03:18:43;;;;;;;3.03;1.20;;;;;;;4.35;79.37;101466.66;5018639;28;20203;-70
2021/03/23 03:21:09;;;;;;;4.47;1.50;;;;;;;4.31;79.76;101467.63;5036718;28;20180;-71
2021/03/23 03:23:34;;;;;;;5.07;1.87;;;;;;;4.41;79.06;101471.84;5018665;28;20191;-69
2021/03/23 03:25:59;;;;;;;5.67;1.67;;;;;;;4.44;79.03;101457.69;5018545;28;20184;-71
2021/03/23 03:28:25;;;;;;;3.90;1.40;;;;;;;4.45;78.68;101472.66;5036272;28;20239;-71
2021/03/23 03:30:50;;;;;;;4.57;1.70;;;;;;;4.39;79.44;101469.22;5036205;28;20173;-71
2021/03/23 03:33:19;;;;;;;4.20;1.53;;;;;;;4.43;78.77;101471.81;5018608;28;20285;-70
2021/03/23 03:35:45;;;;;;;6.27;2.13;;;;;;;4.44;79.23;101458.56;5018899;28;20212;-70
2021/03/23 03:38:11;;;;;;;3.17;1.40;;;;;;;4.35;79.41;101458.72;5036227;28;20218;-69
2021/03/23 03:40:44;;;;;;;5.57;1.80;;;;;;;4.36;78.87;101456.06;5018147;28;20627;-70
2021/03/23 03:43:10;;;;;;;5.87;1.50;;;;;;;4.38;78.96;101474.53;5018633;28;20172;-69
2021/03/23 03:45:36;;;;;;;3.13;1.27;;;;;;;4.37;79.45;101478.06;5036099;28;20168;-70
2021/03/23 03:48:02;;;;;;;7.07;1.50;;;;;;;4.40;78.73;101456.88;5036378;28;20187;-70
2021/03/23 03:50:28;;;;;;;5.53;1.60;;;;;;;4.44;78.87;101469.13;5018495;28;20277;-69
2021/03/23 03:52:56;;;;;;;4.00;1.60;;;;;;;4.37;79.24;101472.78;5036543;28;20283;-70
2021/03/23 03:55:23;;;;;;;6.37;1.80;;;;;;;4.33;79.46;101473.75;5036123;28;20183;-69
2021/03/23 03:57:49;;;;;;;4.30;1.53;;;;;;;4.36;79.13;101478.97;5036356;28;20180;-70
2021/03/23 04:00:17;;;;;;;5.77;2.00;;;;;;;4.21;80.03;101481.88;5035709;28;20183;-69
2021/03/23 04:02:42;;;;;;;5.07;1.60;;;;;;;4.31;79.75;101470.25;5036351;28;20183;-70
2021/03/23 04:05:08;;;;;;;4.37;1.60;;;;;;;4.33;79.45;101481.69;5018541;28;20184;-70
2021/03/23 04:07:34;;;;;;;4.67;1.50;;;;;;;4.30;79.73;101476.44;5036027;28;20180;-69
2021/03/23 04:09:59;;;;;;;3.83;1.47;;;;;;;4.28;79.65;101480.88;5018323;28;20310;-69
2021/03/23 04:12:24;;;;;;;3.03;1.50;;;;;;;4.11;80.67;101475.88;5035157;28;20231;-69
2021/03/23 04:14:49;;;;;;;5.83;1.80;;;;;;;4.22;80.09;101476.56;5035670;28;20540;-69
2021/03/23 04:17:15;;;;;;;4.53;1.60;;;;;;;4.24;80.29;101487.13;5017412;28;20701;-69
2021/03/23 04:19:40;;;;;;;6.70;1.60;;;;;;;4.27;79.41;101497.63;5000863;28;20542;-69
2021/03/23 04:22:05;;;;;;;4.53;1.70;;;;;;;4.25;79.97;101497.66;5017657;28;20207;-70
2021/03/23 04:24:31;;;;;;;4.03;2.07;;;;;;;4.24;79.75;101495.91;5035505;28;20176;-70
2021/03/23 04:26:56;;;;;;;2.83;1.50;;;;;;;4.29;80.17;101493.19;5017233;28;20180;-70
2021/03/23 04:29:21;;;;;;;4.00;1.67;;;;;;;4.29;79.67;101495.84;5034864;28;20194;-70
2021/03/23 04:31:47;;;;;;;4.47;1.80;;;;;;;4.22;80.33;101502.13;5034968;28;20180;-70
2021/03/23 04:34:14;;;;;;;4.57;1.77;;;;;;;4.24;80.02;101492.41;5035285;28;20544;-70
2021/03/23 04:36:40;;;;;;;3.33;1.57;;;;;;;4.31;79.82;101497.56;5017423;28;20172;-70
2021/03/23 04:39:07;;;;;;;4.67;1.93;;;;;;;4.22;80.65;101487.16;5016852;28;20286;-70
2021/03/23 04:41:33;;;;;;;3.20;1.57;;;;;;;4.26;80.10;101495.91;5017083;28;20172;-70
2021/03/23 04:43:58;;;;;;;8.83;1.87;;;;;;;4.31;79.75;101486.13;5035406;28;20183;-70
2021/03/23 04:46:26;;;;;;;3.37;1.80;;;;;;;4.31;79.55;101492.28;5016826;28;20549;-70
2021/03/23 04:48:52;;;;;;;2.80;1.70;;;;;;;4.32;80.00;101501.94;5034474;28;20199;-70
2021/03/23 04:51:19;;;;;;;2.97;1.93;;;;;;;4.29;80.06;101490.56;5034517;28;20240;-70
2021/03/23 04:53:44;;;;;;;6.27;1.67;;;;;;;4.30;79.75;101501.09;5016957;28;20216;-70
2021/03/23 04:56:20;;;;;;;6.27;1.83;;;;;;;4.22;80.14;101494.22;5034428;28;20265;-70
2021/03/23 04:58:45;;;;;;;3.10;1.60;;;;;;;4.25;79.89;101488.88;5016602;28;20257;-71
2021/03/23 05:01:10;;;;;;;3.10;1.50;;;;;;;4.25;80.12;101491.50;5034456;28;20181;-70
2021/03/23 05:03:36;;;;;;;5.83;1.83;;;;;;;4.14;80.97;101496.09;5034586;28;20172;-71
2021/03/23 05:06:10;;;;;;;4.97;2.10;;;;;;;4.08;80.85;101511.13;5016859;28;20208;-70
2021/03/23 05:08:37;;;;;;;3.57;2.20;;;;;;;4.01;81.50;101511.25;5017373;28;20627;-71
2021/03/23 05:11:03;;;;;;;3.20;2.20;;;;;;;4.13;81.22;101515.50;5016471;28;20172;-71
2021/03/23 05:13:29;;;;;;;4.70;2.03;;;;;;;4.17;80.48;101507.50;5034092;28;20607;-71
2021/03/23 05:15:54;;;;;;;8.40;2.30;;;;;;;4.18;80.60;101506.59;5034172;28;20223;-70
2021/03/23 05:18:19;;;;;;;4.30;1.90;;;;;;;4.15;80.58;101518.97;5034565;28;20207;-70
2021/03/23 05:20:45;;;;;;;5.17;2.23;;;;;;;4.15;81.02;101517.22;5017174;28;20172;-70
2021/03/23 05:23:12;;;;;;;4.57;1.90;;;;;;;4.21;80.66;101514.47;5016694;28;20659;-70
2021/03/23 05:25:37;;;;;;;4.40;1.97;;;;;;;4.16;80.67;101532.16;5034013;28;20200;-70
2021/03/23 05:28:03;;;;;;;8.17;2.70;;;;;;;4.18;81.01;101527.72;5015982;28;20198;-70
2021/03/23 05:30:28;;;;;;;3.87;2.20;;;;;;;4.23;80.68;101532.94;5034062;28;20195;-70
2021/03/23 05:32:53;;;;;;;4.47;1.93;;;;;;;4.29;79.96;101527.56;5016263;28;20211;-70
2021/03/23 05:35:19;;;;;;;4.47;2.20;;;;;;;4.22;80.70;101539.13;5034431;28;20222;-71
2021/03/23 05:37:44;;;;;;;6.10;2.43;;;;;;;4.34;80.60;101541.56;5016928;28;20176;-70
2021/03/23 05:40:17;;;;;;;2.80;2.20;;;;;;;4.39;80.44;101537.94;5034124;28;20283;-70
2021/03/23 05:42:43;;;;;;;5.20;2.80;;;;;;;4.38;79.59;101541.50;5033927;28;20168;-70
2021/03/23 05:45:31;;;;;;;4.63;2.07;;;;;;;4.32;80.64;101543.34;5016304;28;20645;-70
2021/03/23 05:48:19;;;;;;;6.33;2.53;;;;;;;4.29;80.07;101548.69;5015863;28;20176;-70
2021/03/23 05:50:51;;;;;;;3.57;2.03;;;;;;;4.34;80.14;101541.56;4999625;28;20184;-70
2021/03/23 05:53:22;;;;;;;4.97;2.50;;;;;;;4.28;80.56;101545.19;5016325;28;20200;-70
2021/03/23 05:55:47;;;;;;;6.50;2.20;;;;;;;4.35;80.33;101540.66;5016229;28;20176;-70
2021/03/23 05:58:22;;;;;;;5.00;2.13;;;;;;;4.30;80.42;101555.72;5015991;28;20207;-70
2021/03/23 06:01:03;;;;;;;3.77;2.23;;;;;;;4.40;80.05;101546.75;5033929;28;20172;-71
2021/03/23 06:03:35;;;;;;;5.37;2.40;;;;;;;4.36;80.02;101545.06;5033447;28;20203;-70
2021/03/23 06:06:05;;;;;;;3.97;2.20;;;;;;;4.38;80.63;101564.41;5015563;28;20632;-70
2021/03/23 06:08:35;;;;;;;5.30;2.27;;;;;;;4.41;79.92;101548.50;5015389;28;20211;-70
2021/03/23 06:11:35;;;;;;;6.97;2.50;;;;;;;4.43;79.68;101548.47;5032431;28;20188;-70
2021/03/23 06:14:06;;;;;;;7.20;2.97;;;;;;;4.47;79.56;101543.13;5034057;28;20691;-69
2021/03/23 06:17:01;;;;;;;8.13;2.83;;;;;;;4.41;79.73;101548.50;5042571;28;20176;-70
2021/03/23 06:19:34;;;;;;;5.50;2.40;;;;;;;4.50;79.66;101543.06;5016016;28;20235;-70
2021/03/23 06:22:17;;;;;;;7.37;2.73;;;;;;;4.59;79.12;101550.84;5016572;28;20163;-69
2021/03/23 06:25:06;;;;;;;5.30;2.80;;;;;;;4.64;78.98;101554.28;5033933;28;20176;-70
2021/03/23 06:27:39;;;;;;;6.30;2.70;;;;;;;4.53;79.48;101550.97;4999878;28;20172;-70
2021/03/23 06:30:28;;;;;;;7.60;2.83;;;;;;;4.55;79.57;101551.81;5020132;28;20200;-70
2021/03/23 06:32:57;;;;;;;5.00;3.30;;;;;;;4.57;79.52;101552.66;5016956;28;20216;-71
2021/03/23 06:35:28;;;;;;;8.13;3.37;;;;;;;4.59;79.63;101556.13;5017021;28;20242;-72
2021/03/23 06:37:54;;;;;;;8.00;2.93;;;;;;;4.58;79.18;101554.38;5033607;28;20163;-69
2021/03/23 06:40:25;;;;;;;11.90;6.97;;;;;;;4.64;78.97;101550.75;5016893;28;20290;-70
2021/03/23 06:42:54;;;;;;;4.47;2.50;;;;;;;4.64;78.45;101543.69;5033627;28;20165;-69
2021/03/23 06:45:28;;;;;;;5.33;2.60;;;;;;;4.67;78.88;101548.06;4999170;28;20263;-70
2021/03/23 06:47:57;;;;;;;3.90;2.30;;;;;;;4.68;78.56;101558.63;5033948;28;20163;-71
2021/03/23 06:50:22;;;;;;;5.50;2.57;;;;;;;4.74;78.06;101548.81;5015541;28;20210;-70
2021/03/23 06:53:18;;;;;;;5.93;2.80;;;;;;;4.74;78.27;101555.00;5033228;28;20227;-70
2021/03/23 06:55:47;;;;;;;4.67;2.47;;;;;;;4.80;77.93;101568.09;5015546;28;20157;-70
2021/03/23 06:58:34;;;;;;;4.07;2.17;;;;;;;4.82;77.60;101561.00;5033017;28;20291;-70
2021/03/23 07:01:14;;;;;;;4.33;2.17;;;;;;;4.82;77.48;101566.28;4998589;28;20184;-69
2021/03/23 07:03:41;;;;;;;7.93;2.73;;;;;;;4.83;77.24;101561.88;5033160;28;20275;-70
2021/03/23 07:06:20;;;;;;;6.10;2.40;;;;;;;4.93;77.00;101556.41;4998737;28;20176;-70
2021/03/23 07:09:10;;;;;;;4.77;2.43;;;;;;;5.03;77.05;101546.53;5014894;28;20200;-71
2021/03/23 07:12:00;;;;;;;8.60;2.70;;;;;;;5.13;76.12;101555.16;5015847;28;20168;-70
2021/03/23 07:14:35;;;;;;;5.90;2.37;;;;;;;5.10;75.59;101556.09;5015328;28;20164;-70
2021/03/23 07:17:25;;;;;;;3.37;2.10;;;;;;;5.08;75.60;101563.19;5033132;28;20636;-70
2021/03/23 07:19:57;;;;;;;5.87;2.40;;;;;;;5.10;76.12;101573.75;5014916;28;20676;-70
2021/03/23 07:22:40;;;;;;;5.40;2.00;;;;;;;5.06;76.16;101585.28;5032666;28;20256;-70
2021/03/23 07:25:39;;;;;;;6.77;2.43;;;;;;;5.21;75.29;101596.47;5032495;28;20279;-70
2021/03/23 07:28:25;;;;;;;8.07;2.47;;;;;;;5.23;75.29;101607.91;4998762;28;20176;-70
2021/03/23 07:31:03;;;;;;;6.83;2.47;;;;;;;5.08;75.81;101609.94;5033206;28;20169;-69
2021/03/23 07:33:50;;;;;;;5.37;2.37;;;;;;;5.10;75.78;101602.84;5032664;28;20188;-70
2021/03/23 07:36:22;;;;;;;9.50;5.03;;;;;;;5.11;75.91;101605.47;5035808;28;20160;-69
2021/03/23 07:39:13;;;;;;;7.47;3.27;;;;;;;5.25;74.84;101605.25;5018030;28;20200;-70
2021/03/23 07:41:50;;;;;;;8.23;2.90;;;;;;;5.30;73.72;101608.66;5018546;28;20509;-70
2021/03/23 07:44:30;;;;;;;7.13;2.77;;;;;;;5.32;74.48;101605.09;5018129;28;20536;-70
2021/03/23 07:46:58;;;;;;;9.73;3.43;;;;;;;5.20;74.58;101607.06;5018054;28;20640;-70
2021/03/23 07:49:46;;;;;;;10.57;4.37;;;;;;;5.37;73.64;101614.72;5017758;28;20685;-70
2021/03/23 07:52:26;;;;;;;7.17;3.27;;;;;;;5.39;73.59;101610.25;5018023;28;20657;-71
2021/03/23 07:54:56;;;;;;;8.47;2.47;;;;;;;5.41;72.94;101611.09;5018009;28;20173;-69
2021/03/23 07:57:48;;;;;;;4.87;2.40;;;;;;;5.41;73.08;101604.03;5018019;28;20176;-69
2021/03/23 08:00:31;;;;;;;5.80;2.73;;;;;;;5.45;72.90;101608.34;5017758;28;20176;-70
2021/03/23 08:03:23;;;;;;;8.27;3.30;;;;;;;5.41;73.39;101606.69;5017659;28;20210;-69
2021/03/23 08:06:26;;;;;;;5.77;2.60;;;;;;;5.42;72.88;101612.84;5018009;28;20530;-70
2021/03/23 08:09:34;;;;;;;5.87;2.70;;;;;;;5.55;72.68;101611.69;5017795;28;20290;-71
2021/03/23 08:12:24;;;;;;;5.83;2.20;;;;;;;5.55;72.17;101617.00;5012479;28;20258;-69
2021/03/23 08:14:59;;;;;;;5.67;2.93;;;;;;;5.61;72.49;101624.84;5017414;28;20156;-70
2021/03/23 08:17:47;;;;;;;8.90;2.50;;;;;;;5.81;72.35;101622.63;5001111;28;20171;-70
2021/03/23 08:20:31;;;;;;;7.60;2.43;;;;;;;5.75;71.80;101636.00;5017827;28;20587;-70
2021/03/23 08:23:12;;;;;;;3.47;1.90;;;;;;;5.79;71.80;101627.09;5001025;28;20262;-70
2021/03/23 08:25:49;;;;;;;9.80;2.50;;;;;;;5.79;71.72;101635.06;5017232;28;20195;-70
2021/03/23 08:28:26;;;;;;;3.93;2.30;;;;;;;5.73;71.42;101640.47;5034814;28;20196;-70
2021/03/23 08:31:10;;;;;;;5.73;2.60;;;;;;;5.59;71.59;101639.88;5001045;28;20180;-70
2021/03/23 08:33:51;;;;;;;7.77;2.37;;;;;;;5.74;71.48;101649.28;5035027;28;20211;-70
2021/03/23 08:36:37;;;;;;;6.27;2.50;;;;;;;5.84;71.19;101651.72;5035251;28;20625;-70
2021/03/23 08:39:15;;;;;;;6.80;2.60;;;;;;;5.86;72.08;101649.91;5000712;28;20196;-70
2021/03/23 08:42:04;;;;;;;9.57;2.67;;;;;;;5.70;70.98;101659.09;5017352;28;20310;-70
2021/03/23 08:44:34;;;;;;;4.70;2.83;;;;;;;5.72;71.65;101661.69;5017261;28;20584;-71
2021/03/23 08:47:08;;;;;;;4.93;2.60;;;;;;;6.02;71.31;101668.19;5016206;28;20172;-69
2021/03/23 08:49:34;;;;;;;8.87;3.53;;;;;;;6.16;70.47;101664.34;5017226;28;20201;-71
2021/03/23 08:51:59;;;;;;;9.53;2.87;;;;;;;6.25;70.48;101664.13;5034569;28;20708;-70
2021/03/23 08:54:42;;;;;;;6.57;3.53;;;;;;;6.37;69.13;101660.34;5034593;28;20180;-70
2021/03/23 08:57:08;;;;;;;12.57;5.03;;;;;;;6.33;69.08;101661.34;5034416;28;20184;-70
2021/03/23 08:59:33;;;;;;;6.63;3.63;;;;;;;6.42;68.70;101658.47;5016778;28;20254;-72
2021/03/23 09:02:00;;;;;;;8.90;2.83;;;;;;;6.51;68.13;101660.91;5016613;28;20184;-70
2021/03/23 09:04:34;;;;;;;5.60;2.60;;;;;;;6.51;68.19;101655.59;5034789;28;20218;-70
2021/03/23 09:07:07;;;;;;;5.87;2.40;;;;;;;6.55;68.74;101656.41;5016802;28;20199;-70
2021/03/23 09:09:37;;;;;;;6.57;2.77;;;;;;;6.24;69.01;101662.38;5034512;28;20223;-70
2021/03/23 09:12:42;;;;;;;5.67;2.43;;;;;;;6.22;68.70;101658.03;5034054;28;20232;-69
2021/03/23 09:18:05;;;;;;;8.17;3.00;;;;;;;6.46;68.40;101665.44;5034906;28;20196;-70
2021/03/23 09:20:31;;;;;;;5.60;2.70;;;;;;;6.54;68.16;101663.47;5034516;28;20545;-71
2021/03/23 09:23:19;;;;;;;6.30;2.47;;;;;;;6.58;68.52;101659.84;5034599;28;20173;-70
2021/03/23 09:25:46;;;;;;;13.53;4.03;;;;;;;6.45;69.02;101669.00;5016890;28;20583;-71
2021/03/23 09:28:33;;;;;;;9.20;2.90;;;;;;;6.28;68.91;101676.44;5034545;28;20283;-70
2021/03/23 09:30:59;;;;;;;8.23;3.07;;;;;;;6.22;69.97;101663.31;5034488;28;20188;-69
2021/03/23 09:33:25;;;;;;;10.47;3.23;;;;;;;5.91;70.62;101671.91;5018325;28;20608;-70
2021/03/23 09:36:11;;;;;;;8.20;3.67;;;;;;;5.91;70.90;101676.34;5035318;28;20184;-70
2021/03/23 09:38:41;;;;;;;7.53;2.53;;;;;;;5.93;71.27;101664.81;5035756;28;20269;-70
2021/03/23 09:41:22;;;;;;;5.67;2.90;;;;;;;5.75;72.12;101688.13;5034944;28;20243;-69
2021/03/23 09:43:50;;;;;;;7.67;3.00;;;;;;;5.78;72.26;101650.97;5037786;28;20612;-70
2021/03/23 09:46:24;;;;;;;6.97;3.00;;;;;;;5.87;71.42;101671.97;5020036;28;20176;-70
2021/03/23 09:48:52;;;;;;;7.63;3.07;;;;;;;6.00;71.48;101675.31;5033672;28;20196;-70
2021/03/23 09:51:43;;;;;;;7.03;3.17;;;;;;;6.12;70.83;101678.56;5033532;28;20195;-69
2021/03/23 09:54:31;;;;;;;5.33;2.47;;;;;;;6.29;70.35;101670.22;5016246;28;20529;-70
2021/03/23 09:57:18;;;;;;;6.33;3.27;;;;;;;6.28;69.97;101687.03;5034170;28;20161;-70
2021/03/23 09:59:46;;;;;;;7.50;3.43;;;;;;;6.30;70.14;101681.72;5016065;28;20193;-70
2021/03/23 10:02:24;;;;;;;5.70;2.67;;;;;;;6.12;70.07;101680.34;5016064;28;20164;-70
2021/03/23 10:04:50;;;;;;;7.23;3.77;;;;;;;6.15;70.25;101682.91;5015746;28;20529;-71
2021/03/23 10:07:24;;;;;;;14.67;4.00;;;;;;;6.21;69.71;101680.13;5016573;28;20184;-70
2021/03/23 10:09:50;;;;;;;14.53;3.53;;;;;;;6.35;68.73;101693.97;5033867;28;20679;-71
2021/03/23 10:12:27;;;;;;;6.13;3.07;;;;;;;6.45;68.50;101692.88;5016316;28;20326;-71
2021/03/23 10:14:52;;;;;;;6.50;3.20;;;;;;;6.30;68.84;101687.00;5037363;28;20167;-71
2021/03/23 10:17:24;;;;;;;6.00;3.30;;;;;;;6.35;68.59;101683.38;5018707;28;20191;-70
2021/03/23 10:19:52;;;;;;;7.30;3.50;;;;;;;6.54;68.70;101684.69;5033180;28;20275;-71
2021/03/23 10:22:31;;;;;;;8.73;4.73;;;;;;;6.76;68.44;101679.78;5033843;28;20172;-70
2021/03/23 10:24:58;;;;;;;9.60;4.60;;;;;;;6.85;67.65;101679.56;5015977;28;20245;-70
2021/03/23 10:27:28;;;;;;;9.80;4.63;;;;;;;6.63;67.02;101678.31;5015941;28;20545;-70
2021/03/23 10:30:14;;;;;;;7.87;4.60;;;;;;;6.86;67.36;101689.25;5016379;28;20267;-70
2021/03/23 10:32:43;;;;;;;7.50;3.60;;;;;;;7.06;66.90;101683.47;5033197;28;20684;-70
2021/03/23 10:35:13;;;;;;;5.70;3.33;;;;;;;7.11;65.75;101686.00;5033798;28;20180;-70
2021/03/23 10:37:39;;;;;;;5.70;3.40;;;;;;;7.12;65.50;101690.41;5033669;28;20235;-70
2021/03/23 10:40:32;;;;;;;8.80;3.77;;;;;;;7.22;65.12;101684.81;5033107;28;20196;-70
2021/03/23 10:42:57;;;;;;;6.93;3.50;;;;;;;7.27;65.60;101682.03;5015612;28;20170;-70
2021/03/23 10:45:32;;;;;;;5.37;3.10;;;;;;;7.43;64.58;101675.44;5033438;28;20169;-70
2021/03/23 10:48:14;;;;;;;7.77;3.37;;;;;;;7.27;65.10;101683.84;5032764;28;20258;-70
2021/03/23 10:50:39;;;;;;;6.07;3.63;;;;;;;7.07;65.25;101687.88;5033243;28;20213;-71
2021/03/23 10:53:13;;;;;;;5.90;3.10;;;;;;;6.98;66.22;101681.91;5033064;28;20193;-70
2021/03/23 10:55:45;;;;;;;5.27;3.40;;;;;;;6.83;66.38;101689.34;5015210;28;20181;-70
2021/03/23 10:58:18;;;;;;;6.73;3.80;;;;;;;6.40;68.04;101689.44;5018769;28;20270;-70
2021/03/23 11:00:45;;;;;;;9.57;3.73;;;;;;;6.18;70.13;101686.38;5034029;28;20235;-70
2021/03/23 11:03:29;;;;;;;5.57;3.37;;;;;;;6.21;69.06;101694.25;5015870;28;20261;-70
2021/03/23 11:05:55;;;;;;;6.70;3.17;;;;;;;6.13;70.34;101680.31;5016780;28;20165;-70
2021/03/23 11:08:20;;;;;;;7.40;3.53;;;;;;;6.00;70.21;101680.59;5032896;28;20214;-70
2021/03/23 11:10:46;;;;;;;6.67;3.80;;;;;;;6.39;69.37;101678.88;5036231;28;20233;-69
2021/03/23 11:13:13;;;;;;;6.37;3.87;;;;;;;6.66;67.02;101685.31;5018948;28;20200;-69
2021/03/23 11:15:41;;;;;;;8.60;3.57;;;;;;;6.76;66.54;101678.91;5036482;28;20239;-70
2021/03/23 11:18:28;;;;;;;5.90;3.23;;;;;;;6.99;65.94;101675.69;5019538;28;20219;-69
2021/03/23 11:20:54;;;;;;;5.43;3.40;;;;;;;7.04;65.60;101682.63;5036516;28;20173;-70
2021/03/23 11:23:41;;;;;;;5.60;3.63;;;;;;;7.16;65.40;101674.38;5018839;28;20172;-70
2021/03/23 11:26:12;;;;;;;4.90;3.07;;;;;;;7.09;64.50;101674.56;5036435;28;20156;-70
2021/03/23 11:28:38;;;;;;;7.23;3.67;;;;;;;7.09;65.28;101674.56;5018396;28;20588;-73
2021/03/23 11:31:05;;;;;;;6.60;3.57;;;;;;;6.94;65.85;101680.22;5037476;28;20238;-70
2021/03/23 11:33:31;;;;;;;7.03;3.60;;;;;;;7.15;65.16;101672.63;5018876;28;20302;-70
2021/03/23 11:35:57;;;;;;;5.63;3.43;;;;;;;7.02;65.29;101675.59;5036140;28;20259;-69
2021/03/23 11:38:22;;;;;;;5.10;3.63;;;;;;;7.05;65.30;101670.22;5035911;28;20256;-71
2021/03/23 11:40:49;;;;;;;6.47;3.43;;;;;;;6.94;65.71;101680.22;5018455;28;20227;-70
2021/03/23 11:43:29;;;;;;;8.77;4.00;;;;;;;6.86;65.61;101677.78;5036002;28;20635;-70
2021/03/23 11:45:58;;;;;;;6.53;3.90;;;;;;;6.69;66.21;101682.59;5036764;28;20265;-71
2021/03/23 11:48:25;;;;;;;8.13;4.73;;;;;;;6.64;66.89;101674.75;5018677;28;20204;-70
2021/03/23 11:50:51;;;;;;;7.50;4.23;;;;;;;6.67;66.34;101671.16;5036457;28;20655;-70
2021/03/23 11:53:17;;;;;;;5.83;4.40;;;;;;;6.81;66.53;101672.56;5001485;28;20200;-70
2021/03/23 11:55:45;;;;;;;7.40;4.63;;;;;;;6.98;66.17;101674.81;5036062;28;20188;-70